Aeroporto :
LOGIN :

Iscrizione | Disclaimer

   EN    FR    IT 

 










Sommario :    VFR   VFR Marginale   IFR   IFR Intensivo   IFR Molto Intensivo
Visibilità : 
Base nubi : 
>= 8 km
>= 3000ft
5 / 8 km
1000 / 3000 ft
1500m / 5 km
500 / 1000 ft
800 / 1500m
200 / 500 ft
< 800m
< 200 ft
Simboli :   Temporali  Nebbia  Neve Forte  Precipitazioni Forti  Vento > 20 kt
SIGMETs :   Varie  Temporali  Ghiacco  Turbolenza  Onda orograficha  Ceneri Vulcaniche






- Altitudine del aeroporto : 2096 ft
- Codice IATA : AUR


LFLW - Aurillac

ULTIMO METAR :
  • 130930Z AUTO 32005KT 230V020 9999 FEW024 16/10 Q1016 NOSIG

METARs OBSOLETI :
  • 130900Z AUTO 32005KT 260V360 9999 SCT022 BKN230 15/09 Q1016 NOSIG
  • 130830Z AUTO 33004KT 260V020 9999 BKN017 14/10 Q1017 NOSIG
  • 130800Z AUTO 32004KT 270V010 CAVOK 13/10 Q1017 NOSIG
  • 130730Z AUTO 30003KT 240V360 9999 FEW008 13/11 Q1017 NOSIG
  • 130700Z AUTO VRB03KT 9999 FEW004 11/10 Q1017 TEMPO BKN012
  • 130630Z AUTO VRB02KT 9999 SCT004 10/09 Q1017 TEMPO BKN012
  • 130600Z AUTO VRB02KT 9999 FEW002 09/09 Q1017 TEMPO BKN012
  • 130530Z AUTO 00000KT 0550 0500 R15/1100U FG FEW001 08/08 Q1017 TEMPO BKN012 BECMG 9999 NSW
  • 130500Z AUTO 15002KT 0700 0400 R15/0600D FG FEW001 07/07 Q1017

TAF TAF LFLW
Valido dal 13 a 09 ore il 13 a 18 ore UTC


130800Z 1309/1318 30005KT 9999 BKN030
BECMG 1313/1315 NSC



MetMap, La meteo Aeronautica in un colpo d'occhio ! - Copyright ORBIFLY Dicembre 2007 - Disclaimer

ORBIFLY MET'MAP TEAM :

Programmazione e sviluppo : Alexandra Zaïnal
Concezione : Baudouin d'Aumeries
Supporto tecnico e logistico : Manuel Goepfert
Aiuto : Marc-Olivier Méhu
Aiuto per la traduzione : Arnaldo La Scala




FONTI E CREDITI :

   NOAA